createdAt,value
2017-03-02T00:00:32.841Z,54.00
2017-03-02T00:01:29.431Z,54.00
2017-03-02T00:02:47.955Z,53.80
2017-03-02T00:03:27.628Z,53.90
2017-03-02T00:04:32.824Z,54.00
2017-03-02T00:05:25.973Z,53.90
2017-03-02T00:06:28.007Z,53.90
2017-03-02T00:07:31.404Z,54.00
2017-03-02T00:08:32.447Z,53.90
2017-03-02T00:09:30.735Z,54.10
2017-03-02T00:10:28.352Z,54.10
2017-03-02T00:11:29.316Z,54.10
2017-03-02T00:12:42.159Z,54.10
2017-03-02T00:13:31.934Z,54.00
2017-03-02T00:14:31.931Z,54.20
2017-03-02T00:15:29.352Z,54.10
2017-03-02T00:16:32.130Z,54.10
2017-03-02T00:17:36.443Z,54.00
2017-03-02T00:18:37.753Z,54.30
2017-03-02T00:19:29.194Z,54.00
2017-03-02T00:20:37.051Z,54.20
2017-03-02T00:22:32.325Z,54.20
2017-03-02T00:23:37.587Z,54.20
2017-03-02T00:24:28.556Z,54.20
2017-03-02T00:25:33.746Z,54.20
2017-03-02T00:26:42.942Z,54.20
2017-03-02T00:27:40.594Z,54.20
2017-03-02T00:28:41.700Z,54.20
2017-03-02T00:29:46.397Z,54.20
2017-03-02T00:30:31.961Z,54.40
2017-03-02T00:31:32.523Z,54.30
2017-03-02T00:32:26.769Z,54.30
2017-03-02T00:33:37.618Z,is
2017-03-02T00:34:37.772Z,54.30
2017-03-02T00:35:32.786Z,54.40
2017-03-02T00:36:33.168Z,54.40
2017-03-02T00:37:38.274Z,54.30
2017-03-02T00:38:33.359Z,54.40
2017-03-02T00:39:28.303Z,54.30
2017-03-02T00:40:35.393Z,54.50
2017-03-02T00:41:38.193Z,54.50
2017-03-02T00:42:38.236Z,54.50
2017-03-02T00:43:28.498Z,is
2017-03-02T00:44:28.550Z,54.50
2017-03-02T00:45:40.984Z,54.40
2017-03-02T00:46:36.201Z,54.50
2017-03-02T00:47:26.852Z,54.60
2017-03-02T00:48:28.210Z,54.60
2017-03-02T00:49:32.927Z,54.60
2017-03-02T00:50:28.725Z,54.50
2017-03-02T00:51:29.604Z,54.60
2017-03-02T00:52:37.646Z,54.60
2017-03-02T00:53:42.519Z,54.60
2017-03-02T00:54:37.812Z,54.60
2017-03-02T00:55:27.701Z,54.60
2017-03-02T00:56:36.786Z,54.70
2017-03-02T00:57:47.031Z,54.50
2017-03-02T00:58:32.563Z,54.50
2017-03-02T00:59:37.704Z,54.60
2017-03-02T01:00:37.720Z,54.70
2017-03-02T01:01:27.383Z,54.70
2017-03-02T01:02:22.833Z,54.80
2017-03-02T01:03:42.501Z,54.70
2017-03-02T01:04:34.315Z,54.70
2017-03-02T01:05:28.897Z,54.70
2017-03-02T01:06:31.892Z,54.70
2017-03-02T01:07:27.196Z,is
2017-03-02T01:08:28.134Z,54.80
2017-03-02T01:09:32.791Z,54.80
2017-03-02T01:10:41.969Z,54.70
2017-03-02T01:11:22.606Z,is
2017-03-02T01:12:46.944Z,54.00
2017-03-02T01:13:38.024Z,54.70
2017-03-02T01:14:32.071Z,54.70
2017-03-02T01:15:28.597Z,54.70
2017-03-02T01:16:39.122Z,54.80
2017-03-02T01:17:39.351Z,54.80
2017-03-02T01:18:36.243Z,54.70
2017-03-02T01:19:35.023Z,55.00
2017-03-02T01:20:43.293Z,54.90
2017-03-02T01:21:36.096Z,54.90
2017-03-02T01:22:28.294Z,54.80
2017-03-02T01:23:46.288Z,54.80
2017-03-02T01:24:30.744Z,55.00
2017-03-02T01:25:26.210Z,54.80
2017-03-02T01:26:26.827Z,54.80
2017-03-02T01:27:32.857Z,55.00
2017-03-02T01:28:27.450Z,55.20
2017-03-02T01:29:28.494Z,54.90
2017-03-02T01:30:26.463Z,54.90
2017-03-02T01:31:26.044Z,55.00
2017-03-02T01:32:16.515Z,55.00
2017-03-02T01:33:34.686Z,55.00
2017-03-02T01:34:29.376Z,54.90
2017-03-02T01:35:49.837Z,55.00
2017-03-02T01:36:23.847Z,55.00
2017-03-02T01:37:37.561Z,55.00
2017-03-02T01:38:29.262Z,55.00
2017-03-02T01:39:30.857Z,55.20
2017-03-02T01:40:21.197Z,55.00
2017-03-02T01:41:35.938Z,55.00
2017-03-02T01:42:25.287Z,55.00
2017-03-02T01:43:34.856Z,55.00
2017-03-02T01:44:39.708Z,55.00
2017-03-02T01:45:46.053Z,55.20
2017-03-02T01:46:35.657Z,55.00
2017-03-02T01:47:37.972Z,55.00
2017-03-02T01:48:39.507Z,55.00
2017-03-02T01:49:43.985Z,55.00
2017-03-02T01:50:50.904Z,55.00
2017-03-02T01:51:39.673Z,55.00
2017-03-02T01:52:28.962Z,55.10
2017-03-02T01:53:36.083Z,55.10
2017-03-02T01:54:32.056Z,is
2017-03-02T01:55:28.636Z,55.10
2017-03-02T01:56:32.888Z,55.00
2017-03-02T01:57:28.107Z,is
2017-03-02T01:58:28.846Z,55.10
2017-03-02T01:59:33.513Z,55.20
2017-03-02T02:00:39.764Z,55.30
2017-03-02T02:01:34.781Z,55.20
2017-03-02T02:02:33.844Z,55.10
2017-03-02T02:03:47.626Z,55.10
2017-03-02T02:04:28.013Z,55.20
2017-03-02T02:05:32.035Z,55.10
2017-03-02T02:06:32.894Z,55.20
2017-03-02T02:07:27.061Z,55.70
2017-03-02T02:08:38.244Z,55.10
2017-03-02T02:09:27.397Z,55.20
2017-03-02T02:10:37.874Z,55.20
2017-03-02T02:11:31.515Z,55.10
2017-03-02T02:12:33.399Z,is
2017-03-02T02:13:32.663Z,55.10
2017-03-02T02:14:37.064Z,55.20
2017-03-02T02:15:26.160Z,55.10
2017-03-02T02:16:31.403Z,55.10
2017-03-02T02:17:32.657Z,55.10
2017-03-02T02:18:34.131Z,55.20
2017-03-02T02:19:31.656Z,55.20
2017-03-02T02:20:31.838Z,55.20
2017-03-02T02:21:28.629Z,55.20
2017-03-02T02:22:23.529Z,55.20
2017-03-02T02:23:27.947Z,55.20
2017-03-02T02:24:36.139Z,55.20
2017-03-02T02:25:37.277Z,55.20
2017-03-02T02:26:32.470Z,55.30
2017-03-02T02:27:26.611Z,55.30
2017-03-02T02:28:25.045Z,55.40
2017-03-02T02:29:36.840Z,55.40
2017-03-02T02:30:41.622Z,55.50
2017-03-02T02:31:28.369Z,55.30
2017-03-02T02:32:30.181Z,55.50
2017-03-02T02:33:36.796Z,55.40
2017-03-02T02:34:26.485Z,55.40
2017-03-02T02:35:36.675Z,55.50
2017-03-02T02:36:38.083Z,55.50
2017-03-02T02:37:33.105Z,55.80
2017-03-02T02:38:35.085Z,55.50
2017-03-02T02:39:41.130Z,55.70
2017-03-02T02:40:31.814Z,55.70
2017-03-02T02:41:30.139Z,55.70
2017-03-02T02:42:33.259Z,55.80
2017-03-02T02:43:45.775Z,55.70
2017-03-02T02:44:28.280Z,55.80
2017-03-02T02:45:44.720Z,55.70
2017-03-02T02:46:29.553Z,is
2017-03-02T02:47:27.926Z,55.80
2017-03-02T02:48:28.930Z,55.80
2017-03-02T02:49:36.876Z,55.70
2017-03-02T02:50:25.883Z,55.80
2017-03-02T02:51:27.245Z,55.80
2017-03-02T02:52:28.477Z,55.80
2017-03-02T02:53:33.805Z,55.70
2017-03-02T02:54:34.749Z,55.80
2017-03-02T02:55:34.291Z,55.80
2017-03-02T02:56:31.720Z,55.70
2017-03-02T02:57:38.033Z,55.80
2017-03-02T02:58:37.756Z,55.70
2017-03-02T02:59:37.335Z,55.80
2017-03-02T03:00:28.587Z,is
2017-03-02T03:01:38.251Z,55.80
2017-03-02T03:02:34.393Z,55.80
2017-03-02T03:03:29.343Z,55.80
2017-03-02T03:04:37.879Z,55.80
2017-03-02T03:05:43.441Z,55.80
2017-03-02T03:06:39.970Z,55.90
2017-03-02T03:07:34.319Z,55.80
2017-03-02T03:08:32.380Z,55.90
2017-03-02T03:09:29.939Z,is
2017-03-02T03:10:27.859Z,56.00
2017-03-02T03:11:28.976Z,55.80
2017-03-02T03:12:37.825Z,55.90
2017-03-02T03:13:32.916Z,55.80
2017-03-02T03:14:29.190Z,55.90
2017-03-02T03:15:37.840Z,55.80
2017-03-02T03:16:28.141Z,55.90
2017-03-02T03:17:39.827Z,55.90
2017-03-02T03:18:29.028Z,55.80
2017-03-02T03:19:46.331Z,55.90
2017-03-02T03:20:30.091Z,55.90
2017-03-02T03:21:29.555Z,55.80
2017-03-02T03:22:32.319Z,55.80
2017-03-02T03:23:26.956Z,55.80
2017-03-02T03:24:33.079Z,55.80
2017-03-02T03:25:42.212Z,55.90
2017-03-02T03:26:31.499Z,55.90
2017-03-02T03:27:34.330Z,55.80
2017-03-02T03:28:42.491Z,55.80
2017-03-02T03:29:26.943Z,55.80
2017-03-02T03:30:29.083Z,55.80
2017-03-02T03:31:41.918Z,55.80
2017-03-02T03:32:42.947Z,55.80
2017-03-02T03:33:29.570Z,55.90
2017-03-02T03:34:28.333Z,55.80
2017-03-02T03:35:34.951Z,55.90
2017-03-02T03:36:32.388Z,55.80
2017-03-02T03:37:32.655Z,55.80
2017-03-02T03:38:29.055Z,is
2017-03-02T03:39:35.376Z,55.80
2017-03-02T03:40:33.737Z,55.90
2017-03-02T03:41:28.789Z,55.90
2017-03-02T03:42:41.492Z,55.80
2017-03-02T03:43:42.472Z,55.80
2017-03-02T03:44:37.644Z,55.90
2017-03-02T03:45:37.847Z,55.80
2017-03-02T03:46:27.974Z,55.90
2017-03-02T03:47:38.010Z,55.80
2017-03-02T03:48:28.128Z,56.10
2017-03-02T03:49:33.408Z,55.80
2017-03-02T03:50:30.553Z,56.40
2017-03-02T03:51:29.775Z,55.80
2017-03-02T03:52:36.954Z,55.80
2017-03-02T03:53:36.244Z,55.80
2017-03-02T03:54:29.224Z,55.80
2017-03-02T03:55:32.419Z,55.90
2017-03-02T03:56:28.245Z,55.90
2017-03-02T03:57:37.844Z,55.80
2017-03-02T03:58:42.419Z,55.80
2017-03-02T03:59:38.454Z,56.50
2017-03-02T04:00:33.892Z,55.80
2017-03-02T04:01:35.992Z,55.90
2017-03-02T04:02:36.749Z,55.50
2017-03-02T04:03:32.606Z,55.80
2017-03-02T04:04:32.768Z,55.80
2017-03-02T04:05:19.872Z,55.80
2017-03-02T04:06:26.435Z,55.80
2017-03-02T04:07:25.869Z,is
2017-03-02T04:08:26.954Z,56.10
2017-03-02T04:09:32.915Z,55.80
2017-03-02T04:10:28.495Z,55.80
2017-03-02T04:11:31.485Z,55.80
2017-03-02T04:12:42.585Z,55.80
2017-03-02T04:13:26.549Z,55.80
2017-03-02T04:14:36.578Z,55.80
2017-03-02T04:15:29.605Z,55.90
2017-03-02T04:16:33.714Z,55.90
2017-03-02T04:17:34.724Z,55.80
2017-03-02T04:18:27.952Z,55.80
2017-03-02T04:19:35.699Z,55.90
2017-03-02T04:20:33.260Z,55.80
2017-03-02T04:21:29.324Z,55.80
2017-03-02T04:22:38.535Z,55.80
2017-03-02T04:23:33.820Z,55.80
2017-03-02T04:24:30.341Z,55.90
2017-03-02T04:25:33.709Z,55.90
2017-03-02T04:26:45.255Z,55.80
2017-03-02T04:27:45.083Z,55.80
2017-03-02T04:28:35.103Z,55.90
2017-03-02T04:29:34.531Z,55.80
2017-03-02T04:30:26.364Z,55.80
2017-03-02T04:31:32.338Z,55.90
2017-03-02T04:32:27.621Z,55.90
2017-03-02T04:33:41.629Z,55.90
2017-03-02T04:34:33.967Z,55.80
2017-03-02T04:35:30.910Z,55.90
2017-03-02T04:36:39.987Z,55.80
2017-03-02T04:37:41.016Z,55.80
2017-03-02T04:38:32.236Z,55.90
2017-03-02T04:39:28.441Z,55.80
2017-03-02T04:40:29.528Z,55.80
2017-03-02T04:41:25.242Z,55.90
2017-03-02T04:42:42.796Z,55.80
2017-03-02T04:43:32.399Z,55.90
2017-03-02T04:44:37.597Z,is
2017-03-02T04:45:38.076Z,55.90
2017-03-02T04:46:32.155Z,55.80
2017-03-02T04:47:36.922Z,55.80
2017-03-02T04:48:29.429Z,55.90
2017-03-02T04:49:28.375Z,55.90
2017-03-02T04:50:34.844Z,55.80
2017-03-02T04:51:23.408Z,55.80
2017-03-02T04:52:26.628Z,55.80
2017-03-02T04:53:37.847Z,55.80
2017-03-02T04:54:36.722Z,55.80
2017-03-02T04:55:32.484Z,55.80
2017-03-02T04:56:38.688Z,55.80
2017-03-02T04:57:39.041Z,55.80
2017-03-02T04:58:36.490Z,55.80
2017-03-02T04:59:27.927Z,is
2017-03-02T05:00:32.590Z,55.80
2017-03-02T05:01:30.437Z,55.80
2017-03-02T05:02:32.035Z,55.30
2017-03-02T05:03:28.948Z,55.80
2017-03-02T05:04:45.158Z,55.80
2017-03-02T05:05:29.341Z,55.80
2017-03-02T05:06:28.237Z,55.80
2017-03-02T05:07:32.428Z,56.10
2017-03-02T05:08:42.491Z,55.90
2017-03-02T05:09:26.277Z,55.90
2017-03-02T05:10:29.323Z,55.80
2017-03-02T05:11:28.786Z,55.90
2017-03-02T05:12:39.709Z,is
2017-03-02T05:13:29.382Z,55.80
2017-03-02T05:14:35.395Z,55.90
2017-03-02T05:15:34.770Z,55.80
2017-03-02T05:16:27.891Z,is
2017-03-02T05:17:29.601Z,55.90
2017-03-02T05:18:28.548Z,is
2017-03-02T05:19:29.487Z,55.80
2017-03-02T05:20:34.189Z,55.90
2017-03-02T05:21:28.477Z,55.80
2017-03-02T05:22:31.194Z,55.90
2017-03-02T05:23:37.155Z,55.90
2017-03-02T05:24:32.811Z,55.80
2017-03-02T05:25:33.846Z,is
2017-03-02T05:26:37.038Z,55.90
2017-03-02T05:27:33.345Z,56.40
2017-03-02T05:28:28.150Z,55.90
2017-03-02T05:29:32.112Z,55.90
2017-03-02T05:30:43.020Z,55.80
2017-03-02T05:31:26.582Z,55.80
2017-03-02T05:32:31.513Z,55.80
2017-03-02T05:33:26.480Z,55.90
2017-03-02T05:34:37.924Z,55.80
2017-03-02T05:35:42.650Z,55.80
2017-03-02T05:36:27.777Z,55.90
2017-03-02T05:37:38.212Z,55.80
2017-03-02T05:38:35.925Z,55.90
2017-03-02T05:39:28.087Z,is
2017-03-02T05:40:30.143Z,55.90
2017-03-02T05:41:34.495Z,55.80
2017-03-02T05:42:29.104Z,55.80
2017-03-02T05:43:36.300Z,55.80
2017-03-02T05:44:22.622Z,56.40
2017-03-02T05:45:32.272Z,55.80
2017-03-02T05:46:22.567Z,55.80
2017-03-02T05:47:43.155Z,55.80
2017-03-02T05:48:28.094Z,55.80
2017-03-02T05:49:20.864Z,55.80
2017-03-02T05:50:26.588Z,55.80
2017-03-02T05:51:29.149Z,55.90
2017-03-02T05:52:33.214Z,55.90
2017-03-02T05:54:27.705Z,55.90
2017-03-02T05:55:35.505Z,55.90
2017-03-02T05:56:36.487Z,55.80
2017-03-02T05:57:43.568Z,55.80
2017-03-02T05:58:34.124Z,55.80
2017-03-02T05:59:37.934Z,55.80
2017-03-02T06:00:31.761Z,55.90
2017-03-02T06:01:20.499Z,55.80
2017-03-02T06:02:22.979Z,55.90
2017-03-02T06:03:35.362Z,55.80
2017-03-02T06:04:43.697Z,55.80
2017-03-02T06:05:42.499Z,55.80
2017-03-02T06:06:35.395Z,55.90
2017-03-02T06:07:35.171Z,55.90
2017-03-02T06:08:38.262Z,55.80
2017-03-02T06:09:38.193Z,55.80
2017-03-02T06:10:35.257Z,55.80
2017-03-02T06:11:38.659Z,55.80
2017-03-02T06:12:38.483Z,55.80
2017-03-02T06:13:28.807Z,55.90
2017-03-02T06:14:30.159Z,55.90
2017-03-02T06:15:42.887Z,56.00
2017-03-02T06:16:42.560Z,55.90
2017-03-02T06:17:32.221Z,55.90
2017-03-02T06:18:42.808Z,55.90
2017-03-02T06:19:32.282Z,55.80
2017-03-02T06:20:42.733Z,55.90
2017-03-02T06:21:39.705Z,55.80
2017-03-02T06:22:43.066Z,55.80
2017-03-02T06:23:33.816Z,55.80
2017-03-02T06:24:44.153Z,55.80
2017-03-02T06:25:37.411Z,55.80
2017-03-02T06:26:39.055Z,55.80
2017-03-02T06:27:28.934Z,55.90
2017-03-02T06:28:30.308Z,55.90
2017-03-02T06:29:27.548Z,55.80
2017-03-02T06:30:34.529Z,55.90
2017-03-02T06:31:19.671Z,55.80
2017-03-02T06:32:19.271Z,55.90
2017-03-02T06:33:22.550Z,55.80
2017-03-02T06:34:27.008Z,55.80
2017-03-02T06:35:28.191Z,55.90
2017-03-02T06:36:27.088Z,55.90
2017-03-02T06:37:23.978Z,55.80
2017-03-02T06:38:29.407Z,55.90
2017-03-02T06:39:25.300Z,55.90
2017-03-02T06:40:29.408Z,55.80
2017-03-02T06:41:23.684Z,55.90
2017-03-02T06:42:24.944Z,55.80
2017-03-02T06:43:22.691Z,55.70
2017-03-02T06:44:28.488Z,55.80
2017-03-02T06:45:28.557Z,55.90
2017-03-02T06:46:27.342Z,55.80
2017-03-02T06:47:26.510Z,55.90
2017-03-02T06:48:32.343Z,55.90
2017-03-02T06:49:22.569Z,55.70
2017-03-02T06:50:19.998Z,55.70
2017-03-02T06:51:18.665Z,is
2017-03-02T06:52:22.176Z,55.70
2017-03-02T06:53:24.406Z,55.80
2017-03-02T06:54:27.184Z,55.80
2017-03-02T06:55:24.772Z,55.90
2017-03-02T06:56:22.958Z,55.70
2017-03-02T06:57:28.205Z,55.70
2017-03-02T06:58:21.351Z,55.80
2017-03-02T06:59:27.422Z,55.70
2017-03-02T07:00:22.653Z,55.70
2017-03-02T07:01:25.311Z,55.70
2017-03-02T07:02:21.164Z,55.80
2017-03-02T07:03:22.500Z,55.80
2017-03-02T07:04:22.933Z,55.80
2017-03-02T07:05:26.604Z,55.70
2017-03-02T07:06:27.763Z,55.70
2017-03-02T07:07:33.146Z,55.70
2017-03-02T07:08:24.081Z,55.80
2017-03-02T07:09:27.722Z,55.80
2017-03-02T07:10:28.689Z,55.70
2017-03-02T07:11:22.337Z,55.80
2017-03-02T07:12:42.912Z,55.80
2017-03-02T07:13:26.327Z,55.80
2017-03-02T07:14:38.493Z,55.70
2017-03-02T07:15:36.663Z,55.70
2017-03-02T07:16:27.593Z,55.80
2017-03-02T07:17:27.951Z,55.70
2017-03-02T07:18:28.441Z,55.70
2017-03-02T07:19:32.677Z,55.80
2017-03-02T07:20:42.398Z,55.80
2017-03-02T07:21:32.573Z,55.70
2017-03-02T07:22:33.920Z,55.70
2017-03-02T07:23:29.983Z,55.70
2017-03-02T07:24:30.711Z,55.80
2017-03-02T07:25:34.851Z,55.70
2017-03-02T07:26:28.906Z,55.80
2017-03-02T07:27:27.919Z,55.80
2017-03-02T07:28:37.763Z,55.70
2017-03-02T07:29:36.415Z,55.80
2017-03-02T07:30:36.429Z,55.70
2017-03-02T07:31:30.924Z,55.90
2017-03-02T07:32:36.969Z,55.80
2017-03-02T07:33:43.610Z,55.70
2017-03-02T07:34:42.833Z,55.80
2017-03-02T07:36:33.091Z,55.80
2017-03-02T07:37:36.652Z,55.70
2017-03-02T07:38:42.090Z,55.70
2017-03-02T07:39:27.447Z,56.00
2017-03-02T07:40:36.597Z,56.30
2017-03-02T07:41:37.479Z,is
2017-03-02T07:42:36.457Z,56.00
2017-03-02T07:43:43.658Z,55.90
2017-03-02T07:44:36.834Z,56.00
2017-03-02T07:45:36.552Z,56.00
2017-03-02T07:46:39.463Z,55.70
2017-03-02T07:47:27.652Z,55.80
2017-03-02T07:48:28.445Z,is
2017-03-02T07:49:42.416Z,55.80
2017-03-02T07:50:37.420Z,53.20
2017-03-02T07:51:40.485Z,50.20
2017-03-02T07:52:41.201Z,49.00
2017-03-02T07:53:36.498Z,47.40
2017-03-02T07:54:28.037Z,47.00
2017-03-02T07:55:36.277Z,47.00
2017-03-02T07:56:28.698Z,47.80
2017-03-02T07:57:34.422Z,49.60
2017-03-02T07:58:30.721Z,51.30
2017-03-02T07:59:45.463Z,51.40
2017-03-02T08:00:35.047Z,52.30
2017-03-02T08:01:42.870Z,52.60
2017-03-02T08:02:44.199Z,52.80
2017-03-02T08:03:49.423Z,53.00
2017-03-02T08:04:42.372Z,53.20
2017-03-02T08:05:44.055Z,53.80
2017-03-02T08:06:28.606Z,54.50
2017-03-02T08:07:34.201Z,54.70
2017-03-02T08:08:34.635Z,54.70
2017-03-02T08:09:30.767Z,55.50
2017-03-02T08:10:35.127Z,54.80
2017-03-02T08:11:46.334Z,55.00
2017-03-02T08:12:35.320Z,54.70
2017-03-02T08:13:37.541Z,54.80
2017-03-02T08:14:35.549Z,54.70
2017-03-02T08:15:29.197Z,54.60
2017-03-02T08:16:32.332Z,54.80
2017-03-02T08:17:33.618Z,54.70
2017-03-02T08:18:47.085Z,54.70
2017-03-02T08:19:34.527Z,is
2017-03-02T08:20:35.299Z,54.60
2017-03-02T08:21:33.387Z,54.90
2017-03-02T08:22:34.085Z,54.90
2017-03-02T08:23:28.799Z,54.90
2017-03-02T08:24:38.435Z,54.70
2017-03-02T08:25:35.381Z,54.80
2017-03-02T08:26:38.710Z,54.80
2017-03-02T08:27:39.360Z,55.00
2017-03-02T08:28:42.521Z,55.60
2017-03-02T08:29:26.690Z,57.50
2017-03-02T08:30:41.165Z,57.30
2017-03-02T08:31:30.492Z,is
2017-03-02T08:32:35.735Z,57.60
2017-03-02T08:33:42.708Z,57.40
2017-03-02T08:34:37.779Z,57.00
2017-03-02T08:35:31.920Z,56.80
2017-03-02T08:36:37.920Z,56.00
2017-03-02T08:37:31.951Z,55.70
2017-03-02T08:39:34.095Z,54.90
2017-03-02T08:40:36.338Z,55.20
2017-03-02T08:41:42.692Z,55.50
2017-03-02T08:42:42.579Z,55.60
2017-03-02T08:43:43.808Z,55.60
2017-03-02T08:44:43.029Z,55.50
2017-03-02T08:45:33.200Z,55.50
2017-03-02T08:46:32.956Z,55.20
2017-03-02T08:47:32.904Z,55.10
2017-03-02T08:48:38.343Z,55.30
2017-03-02T08:49:35.394Z,54.90
2017-03-02T08:50:33.007Z,54.00
2017-03-02T08:51:28.776Z,53.70
2017-03-02T08:52:23.337Z,is
2017-03-02T08:53:28.907Z,53.70
2017-03-02T08:54:39.301Z,53.50
2017-03-02T08:55:30.368Z,53.70
2017-03-02T08:56:41.044Z,53.50
2017-03-02T08:57:28.017Z,53.60
2017-03-02T08:58:40.593Z,53.80
2017-03-02T08:59:35.393Z,54.00
2017-03-02T09:00:46.899Z,54.30
2017-03-02T09:01:35.316Z,54.30
2017-03-02T09:02:27.893Z,54.40
2017-03-02T09:03:35.906Z,53.70
2017-03-02T09:04:33.740Z,54.30
2017-03-02T09:05:46.232Z,54.30
2017-03-02T09:06:40.096Z,54.40
2017-03-02T09:07:33.782Z,54.40
2017-03-02T09:08:27.879Z,54.20
2017-03-02T09:09:47.567Z,54.40
2017-03-02T09:10:31.699Z,54.40
2017-03-02T09:11:35.519Z,54.30
2017-03-02T09:12:33.655Z,54.30
2017-03-02T09:13:36.365Z,54.40
2017-03-02T09:14:41.137Z,54.30
2017-03-02T09:15:34.681Z,54.30
2017-03-02T09:16:34.274Z,54.30
2017-03-02T09:17:33.217Z,54.30
2017-03-02T09:18:32.060Z,54.30
2017-03-02T09:19:37.753Z,54.30
2017-03-02T09:20:29.227Z,53.90
2017-03-02T09:21:36.208Z,54.00
2017-03-02T09:22:42.610Z,54.00
2017-03-02T09:23:37.797Z,54.00
2017-03-02T09:24:29.025Z,54.00
2017-03-02T09:26:29.429Z,54.00
2017-03-02T09:27:42.032Z,54.00
2017-03-02T09:28:31.762Z,54.10
2017-03-02T09:29:36.259Z,54.10
2017-03-02T09:30:34.856Z,54.00
2017-03-02T09:31:46.156Z,54.00
2017-03-02T09:32:34.776Z,54.00
2017-03-02T09:33:44.784Z,54.00
2017-03-02T09:34:37.941Z,53.90
2017-03-02T09:35:39.899Z,53.90
2017-03-02T09:36:36.186Z,53.90
2017-03-02T09:37:47.123Z,53.90
2017-03-02T09:38:25.542Z,53.90
2017-03-02T09:39:22.362Z,53.90
2017-03-02T09:40:33.626Z,53.80
2017-03-02T09:41:42.068Z,53.80
2017-03-02T09:42:28.182Z,53.80
2017-03-02T09:43:44.815Z,53.80
2017-03-02T09:44:29.621Z,53.80
2017-03-02T09:45:27.505Z,53.80
2017-03-02T09:46:36.029Z,53.80
2017-03-02T09:47:32.208Z,53.70
2017-03-02T09:48:38.437Z,53.70
2017-03-02T09:49:36.808Z,53.70
2017-03-02T09:50:40.584Z,53.60
2017-03-02T09:51:32.349Z,53.60
2017-03-02T09:52:32.322Z,52.90
2017-03-02T09:53:38.651Z,54.00
2017-03-02T09:55:27.587Z,53.70
2017-03-02T09:56:37.725Z,53.80
2017-03-02T09:57:37.728Z,53.60
2017-03-02T09:58:46.190Z,53.50
2017-03-02T09:59:30.269Z,53.50
2017-03-02T10:00:35.003Z,53.70
2017-03-02T10:01:37.655Z,53.50
2017-03-02T10:02:31.991Z,53.70
2017-03-02T10:03:44.820Z,53.60
2017-03-02T10:04:38.462Z,53.50
2017-03-02T10:05:38.444Z,53.60
2017-03-02T10:06:43.441Z,53.70
2017-03-02T10:07:37.781Z,53.60
2017-03-02T10:08:43.148Z,53.50
2017-03-02T10:09:37.817Z,53.50
2017-03-02T10:10:36.876Z,53.60
2017-03-02T10:11:47.189Z,53.50
2017-03-02T10:12:33.821Z,53.60
2017-03-02T10:13:48.042Z,53.50
2017-03-02T10:14:38.347Z,53.50
2017-03-02T10:15:33.575Z,53.40
2017-03-02T10:16:32.661Z,53.50
2017-03-02T10:17:32.544Z,53.50
2017-03-02T10:18:47.391Z,53.50
2017-03-02T10:19:36.245Z,53.50
2017-03-02T10:20:37.755Z,53.50
2017-03-02T10:21:34.783Z,53.40
2017-03-02T10:22:42.601Z,53.40
2017-03-02T10:23:32.088Z,53.50
2017-03-02T10:24:40.866Z,53.50
2017-03-02T10:25:39.852Z,53.50
2017-03-02T10:26:30.529Z,53.40
2017-03-02T10:27:35.610Z,53.40
2017-03-02T10:28:30.552Z,53.40
2017-03-02T10:29:36.540Z,53.30
2017-03-02T10:30:29.138Z,53.50
2017-03-02T10:31:37.873Z,53.40
2017-03-02T10:32:35.895Z,53.30
2017-03-02T10:33:39.586Z,53.30
2017-03-02T10:34:32.734Z,53.30
2017-03-02T10:35:27.895Z,53.20
2017-03-02T10:36:30.836Z,is
2017-03-02T10:37:35.276Z,53.30
2017-03-02T10:38:35.368Z,53.20
2017-03-02T10:39:22.494Z,53.20
2017-03-02T10:40:33.501Z,53.20
2017-03-02T10:41:43.524Z,53.10
2017-03-02T10:42:38.784Z,53.30
2017-03-02T10:43:40.826Z,53.20
2017-03-02T10:44:36.113Z,53.20
2017-03-02T10:45:42.020Z,53.10
2017-03-02T10:46:38.046Z,53.10
2017-03-02T10:47:44.387Z,53.20
2017-03-02T10:48:35.375Z,53.20
2017-03-02T10:49:34.379Z,is
2017-03-02T10:50:34.993Z,53.10
2017-03-02T10:51:36.653Z,53.00
2017-03-02T10:52:30.878Z,53.20
2017-03-02T10:53:37.234Z,53.10
2017-03-02T10:54:31.918Z,53.00
2017-03-02T10:55:36.899Z,53.00
2017-03-02T10:56:33.152Z,53.00
2017-03-02T10:57:43.809Z,53.00
2017-03-02T10:58:32.517Z,53.00
2017-03-02T10:59:27.407Z,53.00
2017-03-02T11:00:30.787Z,53.00
2017-03-02T11:01:52.223Z,52.90
2017-03-02T11:02:47.348Z,53.00
2017-03-02T11:03:36.575Z,53.00
2017-03-02T11:04:40.837Z,53.00
2017-03-02T11:05:42.892Z,52.90
2017-03-02T11:06:31.955Z,52.90
2017-03-02T11:07:37.531Z,53.00
2017-03-02T11:08:43.140Z,52.90
2017-03-02T11:09:44.329Z,52.90
2017-03-02T11:10:35.709Z,52.80
2017-03-02T11:11:31.983Z,53.00
2017-03-02T11:12:28.243Z,is
2017-03-02T11:13:32.987Z,52.80
2017-03-02T11:14:38.398Z,52.90
2017-03-02T11:15:32.652Z,52.90
2017-03-02T11:16:33.029Z,52.90
2017-03-02T11:17:28.320Z,52.80
2017-03-02T11:18:38.704Z,52.80
2017-03-02T11:19:38.165Z,52.80
2017-03-02T11:20:33.204Z,52.80
2017-03-02T11:21:38.095Z,52.60
2017-03-02T11:22:36.726Z,52.80
2017-03-02T11:23:32.199Z,52.70
2017-03-02T11:24:43.200Z,52.70
2017-03-02T11:25:42.720Z,52.70
2017-03-02T11:26:32.536Z,52.60
2017-03-02T11:27:37.959Z,52.60
2017-03-02T11:28:46.541Z,52.70
2017-03-02T11:29:36.608Z,52.70
2017-03-02T11:31:34.051Z,52.60
2017-03-02T11:32:37.729Z,52.70
2017-03-02T11:33:36.133Z,52.60
2017-03-02T11:34:41.542Z,52.60
2017-03-02T11:35:35.216Z,52.60
2017-03-02T11:36:38.205Z,52.60
2017-03-02T11:37:39.352Z,52.60
2017-03-02T11:38:37.232Z,is
2017-03-02T11:39:26.250Z,52.70
2017-03-02T11:40:44.505Z,52.50
2017-03-02T11:41:33.084Z,52.50
2017-03-02T11:42:34.994Z,52.50
2017-03-02T11:43:36.007Z,52.60
2017-03-02T11:44:39.166Z,52.60
2017-03-02T11:45:35.001Z,52.50
2017-03-02T11:46:43.553Z,52.50
2017-03-02T11:47:32.584Z,52.20
2017-03-02T11:48:28.546Z,52.50
2017-03-02T11:49:36.829Z,52.40
2017-03-02T11:50:47.025Z,52.50
2017-03-02T11:51:36.400Z,52.40
2017-03-02T11:52:38.522Z,52.40
2017-03-02T11:53:43.182Z,52.20
2017-03-02T11:54:42.667Z,52.60
2017-03-02T11:55:40.447Z,52.40
2017-03-02T11:56:46.010Z,52.40
2017-03-02T11:57:33.961Z,52.60
2017-03-02T11:58:47.642Z,52.40
2017-03-02T11:59:31.016Z,52.40
2017-03-02T12:00:27.833Z,52.50
2017-03-02T12:01:46.310Z,52.50
2017-03-02T12:02:32.201Z,52.40
2017-03-02T12:03:37.692Z,52.40
2017-03-02T12:04:38.546Z,52.30
2017-03-02T12:05:36.956Z,52.30
2017-03-02T12:06:32.348Z,52.40
2017-03-02T12:07:42.742Z,52.30
2017-03-02T12:08:32.867Z,52.40
2017-03-02T12:09:37.829Z,52.20
2017-03-02T12:10:28.679Z,52.30
2017-03-02T12:11:33.627Z,52.40
2017-03-02T12:12:42.790Z,52.40
2017-03-02T12:13:38.420Z,52.30
2017-03-02T12:14:33.705Z,52.30
2017-03-02T12:15:38.216Z,52.00
2017-03-02T12:16:30.190Z,52.40
2017-03-02T12:17:40.372Z,52.30
2017-03-02T12:18:35.325Z,52.40
2017-03-02T12:19:35.968Z,52.30
2017-03-02T12:20:29.958Z,52.30
2017-03-02T12:21:48.023Z,52.40
2017-03-02T12:22:41.515Z,52.40
2017-03-02T12:23:45.574Z,52.30
2017-03-02T12:24:40.207Z,52.20
2017-03-02T12:25:41.275Z,52.30
2017-03-02T12:26:32.197Z,52.50
2017-03-02T12:27:33.103Z,52.20
2017-03-02T12:28:38.276Z,52.30
2017-03-02T12:29:38.200Z,52.30
2017-03-02T12:30:32.124Z,52.30
2017-03-02T12:31:34.654Z,52.20
2017-03-02T12:32:37.493Z,52.30
2017-03-02T12:33:29.641Z,52.40
2017-03-02T12:34:32.584Z,52.40
2017-03-02T12:35:26.834Z,52.30
2017-03-02T12:36:42.567Z,52.30
2017-03-02T12:37:32.497Z,52.40
2017-03-02T12:38:38.067Z,52.20
2017-03-02T12:39:33.204Z,52.20
2017-03-02T12:40:38.042Z,52.20
2017-03-02T12:41:42.670Z,52.30
2017-03-02T12:42:41.937Z,52.30
2017-03-02T12:43:35.184Z,52.40
2017-03-02T12:44:42.847Z,52.40
2017-03-02T12:45:32.708Z,52.30
2017-03-02T12:46:38.051Z,52.20
2017-03-02T12:47:32.176Z,52.30
2017-03-02T12:48:37.842Z,51.90
2017-03-02T12:49:47.615Z,52.20
2017-03-02T12:50:48.628Z,52.30
2017-03-02T12:51:36.570Z,52.50
2017-03-02T12:52:40.916Z,52.40
2017-03-02T12:53:35.871Z,52.40
2017-03-02T12:54:42.831Z,52.20
2017-03-02T12:55:32.728Z,52.30
2017-03-02T12:56:41.016Z,52.30
2017-03-02T12:57:41.007Z,52.30
2017-03-02T12:58:39.623Z,52.20
2017-03-02T12:59:29.006Z,52.20
2017-03-02T13:00:42.894Z,52.20
2017-03-02T13:01:37.846Z,52.30
2017-03-02T13:02:35.444Z,52.30